sensor_id;sensor_type;location;lat;lon;timestamp;pressure;altitude;pressure_sealevel;temperature;humidity
78373;BME280;67656;52.074;4.758;2023-08-12T00:02:00;101797.59;;;20.42;100.00
78373;BME280;67656;52.074;4.758;2023-08-12T00:07:01;101789.28;;;20.31;100.00
78373;BME280;67656;52.074;4.758;2023-08-12T00:12:01;101790.38;;;20.26;100.00
78373;BME280;67656;52.074;4.758;2023-08-12T00:17:01;101775.13;;;20.11;100.00
78373;BME280;67656;52.074;4.758;2023-08-12T00:22:02;101767.53;;;20.19;100.00
78373;BME280;67656;52.074;4.758;2023-08-12T00:27:02;101765.84;;;20.34;100.00
78373;BME280;67656;52.074;4.758;2023-08-12T00:32:03;101768.88;;;20.44;100.00
78373;BME280;67656;52.074;4.758;2023-08-12T00:37:03;101768.25;;;20.39;100.00
78373;BME280;67656;52.074;4.758;2023-08-12T00:42:04;101764.25;;;20.30;100.00
78373;BME280;67656;52.074;4.758;2023-08-12T00:47:04;101762.72;;;20.26;100.00
78373;BME280;67656;52.074;4.758;2023-08-12T00:52:05;101748.63;;;20.22;100.00
78373;BME280;67656;52.074;4.758;2023-08-12T00:57:06;101735.16;;;20.06;100.00
78373;BME280;67656;52.074;4.758;2023-08-12T01:02:08;101739.00;;;20.18;100.00
78373;BME280;67656;52.074;4.758;2023-08-12T01:07:09;101732.53;;;20.22;100.00
78373;BME280;67656;52.074;4.758;2023-08-12T01:12:12;101731.09;;;20.33;100.00
78373;BME280;67656;52.074;4.758;2023-08-12T01:17:14;101733.28;;;20.24;100.00
78373;BME280;67656;52.074;4.758;2023-08-12T01:22:16;101729.19;;;20.35;100.00
78373;BME280;67656;52.074;4.758;2023-08-12T01:27:16;101727.47;;;20.34;100.00
78373;BME280;67656;52.074;4.758;2023-08-12T01:32:43;101712.56;;;20.44;100.00
78373;BME280;67656;52.074;4.758;2023-08-12T01:37:48;101710.84;;;20.43;100.00
78373;BME280;67656;52.074;4.758;2023-08-12T01:42:50;101704.78;;;20.55;100.00
78373;BME280;67656;52.074;4.758;2023-08-12T01:47:52;101697.34;;;20.61;100.00
78373;BME280;67656;52.074;4.758;2023-08-12T01:52:52;101693.03;;;20.42;100.00
78373;BME280;67656;52.074;4.758;2023-08-12T01:57:52;101699.94;;;20.62;100.00
78373;BME280;67656;52.074;4.758;2023-08-12T02:02:53;101694.66;;;20.61;100.00
78373;BME280;67656;52.074;4.758;2023-08-12T02:07:53;101690.06;;;20.63;100.00
78373;BME280;67656;52.074;4.758;2023-08-12T02:12:54;101677.97;;;20.55;100.00
78373;BME280;67656;52.074;4.758;2023-08-12T02:17:54;101672.06;;;20.65;100.00
78373;BME280;67656;52.074;4.758;2023-08-12T02:22:55;101668.97;;;20.56;100.00
78373;BME280;67656;52.074;4.758;2023-08-12T02:27:55;101666.84;;;20.47;100.00
78373;BME280;67656;52.074;4.758;2023-08-12T02:32:56;101664.97;;;20.64;100.00
78373;BME280;67656;52.074;4.758;2023-08-12T02:37:56;101662.06;;;20.52;100.00
78373;BME280;67656;52.074;4.758;2023-08-12T02:42:56;101655.81;;;20.68;100.00
78373;BME280;67656;52.074;4.758;2023-08-12T02:47:57;101650.28;;;20.71;100.00
78373;BME280;67656;52.074;4.758;2023-08-12T02:52:57;101646.66;;;20.72;100.00
78373;BME280;67656;52.074;4.758;2023-08-12T02:58:01;101638.09;;;20.81;100.00
78373;BME280;67656;52.074;4.758;2023-08-12T03:03:01;101630.38;;;20.59;100.00
78373;BME280;67656;52.074;4.758;2023-08-12T03:08:02;101630.22;;;20.78;100.00
78373;BME280;67656;52.074;4.758;2023-08-12T03:13:03;101635.56;;;20.78;100.00
78373;BME280;67656;52.074;4.758;2023-08-12T03:18:04;101615.84;;;20.79;100.00
78373;BME280;67656;52.074;4.758;2023-08-12T03:23:04;101601.47;;;20.80;100.00
78373;BME280;67656;52.074;4.758;2023-08-12T03:28:05;101602.44;;;20.63;100.00
78373;BME280;67656;52.074;4.758;2023-08-12T03:33:07;101601.13;;;20.70;100.00
78373;BME280;67656;52.074;4.758;2023-08-12T03:38:08;101594.22;;;20.82;100.00
78373;BME280;67656;52.074;4.758;2023-08-12T03:43:09;101585.56;;;20.77;100.00
78373;BME280;67656;52.074;4.758;2023-08-12T03:48:11;101594.81;;;20.71;100.00
78373;BME280;67656;52.074;4.758;2023-08-12T03:53:11;101604.94;;;20.82;100.00
78373;BME280;67656;52.074;4.758;2023-08-12T03:58:13;101592.38;;;20.83;100.00
78373;BME280;67656;52.074;4.758;2023-08-12T04:03:14;101582.59;;;20.82;100.00
78373;BME280;67656;52.074;4.758;2023-08-12T04:08:15;101579.47;;;20.90;100.00
78373;BME280;67656;52.074;4.758;2023-08-12T04:13:15;101565.56;;;20.83;100.00
78373;BME280;67656;52.074;4.758;2023-08-12T04:18:16;101556.84;;;20.79;100.00
78373;BME280;67656;52.074;4.758;2023-08-12T04:23:17;101548.22;;;20.89;100.00
78373;BME280;67656;52.074;4.758;2023-08-12T04:28:17;101538.25;;;20.91;100.00
78373;BME280;67656;52.074;4.758;2023-08-12T04:33:18;101526.47;;;20.93;100.00
78373;BME280;67656;52.074;4.758;2023-08-12T04:38:19;101538.44;;;20.87;100.00
78373;BME280;67656;52.074;4.758;2023-08-12T04:43:23;101529.66;;;20.85;100.00
78373;BME280;67656;52.074;4.758;2023-08-12T04:48:23;101524.09;;;21.03;100.00
78373;BME280;67656;52.074;4.758;2023-08-12T04:53:24;101522.75;;;20.96;100.00
78373;BME280;67656;52.074;4.758;2023-08-12T04:58:25;101523.03;;;21.06;100.00
78373;BME280;67656;52.074;4.758;2023-08-12T05:03:26;101508.59;;;21.08;100.00
78373;BME280;67656;52.074;4.758;2023-08-12T05:08:27;101509.06;;;21.00;100.00
78373;BME280;67656;52.074;4.758;2023-08-12T05:13:29;101519.22;;;21.10;100.00
78373;BME280;67656;52.074;4.758;2023-08-12T05:18:30;101516.34;;;21.13;100.00
78373;BME280;67656;52.074;4.758;2023-08-12T05:23:30;101516.03;;;21.03;100.00
78373;BME280;67656;52.074;4.758;2023-08-12T05:28:32;101514.78;;;20.94;100.00
78373;BME280;67656;52.074;4.758;2023-08-12T05:33:32;101517.41;;;20.96;100.00
78373;BME280;67656;52.074;4.758;2023-08-12T05:38:33;101517.94;;;21.01;100.00
78373;BME280;67656;52.074;4.758;2023-08-12T05:43:33;101523.78;;;20.79;100.00
78373;BME280;67656;52.074;4.758;2023-08-12T05:48:34;101532.06;;;20.90;100.00
78373;BME280;67656;52.074;4.758;2023-08-12T05:53:34;101551.28;;;20.82;100.00
78373;BME280;67656;52.074;4.758;2023-08-12T05:58:35;101555.53;;;20.70;100.00
78373;BME280;67656;52.074;4.758;2023-08-12T06:03:35;101530.72;;;20.67;100.00
78373;BME280;67656;52.074;4.758;2023-08-12T06:08:35;101523.19;;;20.43;100.00
78373;BME280;67656;52.074;4.758;2023-08-12T06:13:36;101519.38;;;20.47;100.00
78373;BME280;67656;52.074;4.758;2023-08-12T06:18:36;101516.75;;;20.46;100.00
78373;BME280;67656;52.074;4.758;2023-08-12T06:23:36;101517.03;;;20.41;100.00
78373;BME280;67656;52.074;4.758;2023-08-12T06:28:37;101530.63;;;20.38;100.00
78373;BME280;67656;52.074;4.758;2023-08-12T06:33:37;101523.41;;;20.08;100.00
78373;BME280;67656;52.074;4.758;2023-08-12T06:38:38;101510.09;;;20.06;100.00
78373;BME280;67656;52.074;4.758;2023-08-12T06:43:38;101499.53;;;20.19;100.00
78373;BME280;67656;52.074;4.758;2023-08-12T06:48:39;101500.13;;;20.24;100.00
78373;BME280;67656;52.074;4.758;2023-08-12T06:53:39;101499.88;;;20.13;100.00
78373;BME280;67656;52.074;4.758;2023-08-12T06:58:40;101500.00;;;20.42;100.00
78373;BME280;67656;52.074;4.758;2023-08-12T07:03:40;101505.53;;;20.39;100.00
78373;BME280;67656;52.074;4.758;2023-08-12T07:08:41;101502.56;;;20.60;100.00
78373;BME280;67656;52.074;4.758;2023-08-12T07:13:41;101497.03;;;20.47;100.00
78373;BME280;67656;52.074;4.758;2023-08-12T07:18:42;101507.66;;;20.48;100.00
78373;BME280;67656;52.074;4.758;2023-08-12T07:23:42;101511.94;;;20.67;100.00
78373;BME280;67656;52.074;4.758;2023-08-12T07:28:42;101511.41;;;20.76;100.00
78373;BME280;67656;52.074;4.758;2023-08-12T07:33:43;101510.22;;;20.66;100.00
78373;BME280;67656;52.074;4.758;2023-08-12T07:38:43;101514.03;;;20.62;100.00
78373;BME280;67656;52.074;4.758;2023-08-12T07:43:43;101540.69;;;19.37;100.00
78373;BME280;67656;52.074;4.758;2023-08-12T07:48:47;101539.34;;;18.77;100.00
78373;BME280;67656;52.074;4.758;2023-08-12T07:53:48;101532.72;;;18.49;100.00
78373;BME280;67656;52.074;4.758;2023-08-12T07:58:48;101527.41;;;18.66;100.00
78373;BME280;67656;52.074;4.758;2023-08-12T08:03:49;101536.81;;;18.91;100.00
78373;BME280;67656;52.074;4.758;2023-08-12T08:08:49;101549.81;;;18.81;100.00
78373;BME280;67656;52.074;4.758;2023-08-12T08:13:50;101549.09;;;18.60;100.00
78373;BME280;67656;52.074;4.758;2023-08-12T08:18:50;101557.97;;;18.61;100.00
78373;BME280;67656;52.074;4.758;2023-08-12T08:23:50;101570.81;;;18.89;100.00
78373;BME280;67656;52.074;4.758;2023-08-12T08:28:51;101542.66;;;19.17;100.00
78373;BME280;67656;52.074;4.758;2023-08-12T08:33:51;101526.59;;;19.17;100.00
78373;BME280;67656;52.074;4.758;2023-08-12T08:38:51;101563.56;;;19.26;100.00
78373;BME280;67656;52.074;4.758;2023-08-12T08:43:55;101564.97;;;19.33;100.00
78373;BME280;67656;52.074;4.758;2023-08-12T08:48:59;101553.50;;;19.47;100.00
78373;BME280;67656;52.074;4.758;2023-08-12T08:54:02;101550.78;;;20.13;100.00
78373;BME280;67656;52.074;4.758;2023-08-12T08:59:03;101529.59;;;20.24;100.00
78373;BME280;67656;52.074;4.758;2023-08-12T09:04:05;101528.28;;;20.78;100.00
78373;BME280;67656;52.074;4.758;2023-08-12T09:09:09;101522.38;;;20.71;100.00
78373;BME280;67656;52.074;4.758;2023-08-12T09:14:10;101522.19;;;21.20;100.00
78373;BME280;67656;52.074;4.758;2023-08-12T09:19:14;101524.72;;;22.21;100.00
78373;BME280;67656;52.074;4.758;2023-08-12T09:24:14;101517.16;;;23.33;100.00
78373;BME280;67656;52.074;4.758;2023-08-12T09:29:15;101523.38;;;23.07;100.00
78373;BME280;67656;52.074;4.758;2023-08-12T09:34:17;101547.31;;;23.88;100.00
78373;BME280;67656;52.074;4.758;2023-08-12T09:39:18;101529.22;;;24.14;100.00
78373;BME280;67656;52.074;4.758;2023-08-12T09:44:19;101544.94;;;23.20;100.00
78373;BME280;67656;52.074;4.758;2023-08-12T09:49:20;101536.09;;;23.18;100.00
78373;BME280;67656;52.074;4.758;2023-08-12T09:54:21;101531.91;;;24.38;100.00
78373;BME280;67656;52.074;4.758;2023-08-12T09:59:30;101534.31;;;25.02;100.00
78373;BME280;67656;52.074;4.758;2023-08-12T10:04:39;101539.19;;;23.38;100.00
78373;BME280;67656;52.074;4.758;2023-08-12T10:09:40;101528.34;;;24.38;100.00
78373;BME280;67656;52.074;4.758;2023-08-12T10:14:42;101530.03;;;25.22;100.00
78373;BME280;67656;52.074;4.758;2023-08-12T10:19:46;101534.44;;;23.67;100.00
78373;BME280;67656;52.074;4.758;2023-08-12T10:24:47;101549.25;;;23.86;100.00
78373;BME280;67656;52.074;4.758;2023-08-12T10:29:50;101540.50;;;23.19;100.00
78373;BME280;67656;52.074;4.758;2023-08-12T10:34:57;101536.78;;;24.09;100.00
78373;BME280;67656;52.074;4.758;2023-08-12T10:39:58;101535.22;;;25.48;100.00
78373;BME280;67656;52.074;4.758;2023-08-12T10:44:59;101523.22;;;25.96;100.00
78373;BME280;67656;52.074;4.758;2023-08-12T10:50:04;101528.94;;;25.47;100.00
78373;BME280;67656;52.074;4.758;2023-08-12T10:55:18;101523.66;;;25.57;100.00
78373;BME280;67656;52.074;4.758;2023-08-12T11:05:20;101517.00;;;25.27;100.00
78373;BME280;67656;52.074;4.758;2023-08-12T11:10:30;101522.38;;;25.04;100.00
78373;BME280;67656;52.074;4.758;2023-08-12T11:15:42;101509.34;;;25.77;100.00
78373;BME280;67656;52.074;4.758;2023-08-12T11:20:44;101514.06;;;25.30;100.00
78373;BME280;67656;52.074;4.758;2023-08-12T11:25:45;101511.38;;;25.64;100.00
78373;BME280;67656;52.074;4.758;2023-08-12T11:30:45;101509.25;;;25.68;100.00
78373;BME280;67656;52.074;4.758;2023-08-12T11:35:46;101518.00;;;25.60;100.00
78373;BME280;67656;52.074;4.758;2023-08-12T11:40:46;101519.25;;;26.11;100.00
78373;BME280;67656;52.074;4.758;2023-08-12T11:45:47;101517.88;;;26.17;100.00
78373;BME280;67656;52.074;4.758;2023-08-12T11:50:47;101513.63;;;26.35;100.00
78373;BME280;67656;52.074;4.758;2023-08-12T11:55:48;101517.09;;;25.82;100.00
78373;BME280;67656;52.074;4.758;2023-08-12T12:00:48;101518.22;;;26.24;100.00
78373;BME280;67656;52.074;4.758;2023-08-12T12:05:49;101520.19;;;24.62;100.00
78373;BME280;67656;52.074;4.758;2023-08-12T12:10:50;101523.38;;;25.71;100.00
78373;BME280;67656;52.074;4.758;2023-08-12T12:15:52;101515.81;;;25.98;100.00
78373;BME280;67656;52.074;4.758;2023-08-12T12:20:56;101523.53;;;26.67;100.00
78373;BME280;67656;52.074;4.758;2023-08-12T12:26:01;101537.38;;;26.53;100.00
78373;BME280;67656;52.074;4.758;2023-08-12T12:31:01;101525.84;;;26.51;100.00
78373;BME280;67656;52.074;4.758;2023-08-12T12:36:02;101539.78;;;26.14;100.00
78373;BME280;67656;52.074;4.758;2023-08-12T12:41:02;101546.50;;;25.41;100.00
78373;BME280;67656;52.074;4.758;2023-08-12T12:46:03;101546.19;;;25.90;100.00
78373;BME280;67656;52.074;4.758;2023-08-12T12:51:03;101549.16;;;25.07;100.00
78373;BME280;67656;52.074;4.758;2023-08-12T12:56:05;101559.97;;;25.30;100.00
78373;BME280;67656;52.074;4.758;2023-08-12T13:01:05;101558.75;;;25.23;100.00
78373;BME280;67656;52.074;4.758;2023-08-12T13:06:06;101561.84;;;26.30;100.00
78373;BME280;67656;52.074;4.758;2023-08-12T13:11:06;101558.19;;;24.83;100.00
78373;BME280;67656;52.074;4.758;2023-08-12T13:16:07;101569.56;;;25.34;100.00
78373;BME280;67656;52.074;4.758;2023-08-12T13:21:07;101576.41;;;25.15;100.00
78373;BME280;67656;52.074;4.758;2023-08-12T13:26:08;101590.19;;;25.35;100.00
78373;BME280;67656;52.074;4.758;2023-08-12T13:31:08;101580.66;;;25.42;100.00
78373;BME280;67656;52.074;4.758;2023-08-12T13:36:09;101582.88;;;25.49;100.00
78373;BME280;67656;52.074;4.758;2023-08-12T13:41:09;101579.00;;;25.17;100.00
78373;BME280;67656;52.074;4.758;2023-08-12T13:46:09;101583.44;;;25.18;100.00
78373;BME280;67656;52.074;4.758;2023-08-12T13:51:10;101588.31;;;25.02;100.00
78373;BME280;67656;52.074;4.758;2023-08-12T13:56:10;101584.88;;;25.11;100.00
78373;BME280;67656;52.074;4.758;2023-08-12T14:01:11;101582.47;;;24.72;100.00
78373;BME280;67656;52.074;4.758;2023-08-12T14:06:11;101597.44;;;24.28;100.00
78373;BME280;67656;52.074;4.758;2023-08-12T14:11:11;101566.84;;;25.11;100.00
78373;BME280;67656;52.074;4.758;2023-08-12T14:16:12;101572.94;;;25.02;100.00
78373;BME280;67656;52.074;4.758;2023-08-12T14:21:12;101576.56;;;24.43;100.00
78373;BME280;67656;52.074;4.758;2023-08-12T14:26:12;101582.09;;;25.35;100.00
78373;BME280;67656;52.074;4.758;2023-08-12T14:31:13;101566.41;;;24.46;100.00
78373;BME280;67656;52.074;4.758;2023-08-12T14:36:13;101580.22;;;24.42;100.00
78373;BME280;67656;52.074;4.758;2023-08-12T14:41:13;101585.41;;;24.69;100.00
78373;BME280;67656;52.074;4.758;2023-08-12T14:46:14;101583.38;;;24.95;100.00
78373;BME280;67656;52.074;4.758;2023-08-12T14:51:14;101566.31;;;24.95;100.00
78373;BME280;67656;52.074;4.758;2023-08-12T14:56:15;101589.31;;;24.41;100.00
78373;BME280;67656;52.074;4.758;2023-08-12T15:01:15;101580.91;;;24.08;100.00
78373;BME280;67656;52.074;4.758;2023-08-12T15:06:16;101582.09;;;24.52;100.00
78373;BME280;67656;52.074;4.758;2023-08-12T15:11:16;101590.09;;;24.30;100.00
78373;BME280;67656;52.074;4.758;2023-08-12T15:16:16;101585.91;;;24.01;100.00
78373;BME280;67656;52.074;4.758;2023-08-12T15:21:17;101585.16;;;24.48;100.00
78373;BME280;67656;52.074;4.758;2023-08-12T15:26:26;101585.81;;;24.27;100.00
78373;BME280;67656;52.074;4.758;2023-08-12T15:31:26;101589.44;;;24.02;100.00
78373;BME280;67656;52.074;4.758;2023-08-12T15:36:27;101602.00;;;23.64;100.00
78373;BME280;67656;52.074;4.758;2023-08-12T15:41:27;101590.56;;;23.86;100.00
78373;BME280;67656;52.074;4.758;2023-08-12T15:46:28;101592.50;;;23.84;100.00
78373;BME280;67656;52.074;4.758;2023-08-12T15:51:28;101581.50;;;23.87;100.00
78373;BME280;67656;52.074;4.758;2023-08-12T15:56:29;101581.50;;;23.87;100.00
78373;BME280;67656;52.074;4.758;2023-08-12T16:01:30;101586.69;;;23.65;100.00
78373;BME280;67656;52.074;4.758;2023-08-12T16:06:30;101577.38;;;23.95;100.00
78373;BME280;67656;52.074;4.758;2023-08-12T16:11:30;101576.91;;;24.14;100.00
78373;BME280;67656;52.074;4.758;2023-08-12T16:16:31;101575.59;;;24.19;100.00
78373;BME280;67656;52.074;4.758;2023-08-12T16:21:34;101568.91;;;23.75;100.00
78373;BME280;67656;52.074;4.758;2023-08-12T16:26:34;101567.25;;;23.98;100.00
78373;BME280;67656;52.074;4.758;2023-08-12T16:31:35;101569.91;;;24.11;100.00
78373;BME280;67656;52.074;4.758;2023-08-12T16:36:36;101550.78;;;24.14;100.00
78373;BME280;67656;52.074;4.758;2023-08-12T16:41:36;101554.53;;;24.25;100.00
78373;BME280;67656;52.074;4.758;2023-08-12T16:46:36;101560.09;;;24.10;100.00
78373;BME280;67656;52.074;4.758;2023-08-12T16:51:37;101570.50;;;23.77;100.00
78373;BME280;67656;52.074;4.758;2023-08-12T16:56:37;101558.63;;;23.80;100.00
78373;BME280;67656;52.074;4.758;2023-08-12T17:01:38;101564.50;;;23.61;100.00
78373;BME280;67656;52.074;4.758;2023-08-12T17:06:39;101560.75;;;23.38;100.00
78373;BME280;67656;52.074;4.758;2023-08-12T17:11:39;101554.63;;;23.36;100.00
78373;BME280;67656;52.074;4.758;2023-08-12T17:16:39;101557.84;;;23.02;100.00
78373;BME280;67656;52.074;4.758;2023-08-12T17:21:40;101544.88;;;22.68;100.00
78373;BME280;67656;52.074;4.758;2023-08-12T17:26:40;101550.13;;;23.23;100.00
78373;BME280;67656;52.074;4.758;2023-08-12T17:31:41;101561.81;;;23.09;100.00
78373;BME280;67656;52.074;4.758;2023-08-12T17:36:41;101569.09;;;22.68;100.00
78373;BME280;67656;52.074;4.758;2023-08-12T17:41:42;101563.88;;;22.93;100.00
78373;BME280;67656;52.074;4.758;2023-08-12T17:46:42;101576.63;;;21.94;100.00
78373;BME280;67656;52.074;4.758;2023-08-12T17:51:43;101576.34;;;21.84;100.00
78373;BME280;67656;52.074;4.758;2023-08-12T17:56:43;101574.19;;;21.47;100.00
78373;BME280;67656;52.074;4.758;2023-08-12T18:01:43;101569.50;;;21.66;100.00
78373;BME280;67656;52.074;4.758;2023-08-12T18:06:44;101582.31;;;21.46;100.00
78373;BME280;67656;52.074;4.758;2023-08-12T18:11:45;101582.22;;;21.33;100.00
78373;BME280;67656;52.074;4.758;2023-08-12T18:16:45;101582.03;;;21.22;100.00
78373;BME280;67656;52.074;4.758;2023-08-12T18:21:45;101594.25;;;21.11;100.00
78373;BME280;67656;52.074;4.758;2023-08-12T18:26:46;101591.78;;;21.08;100.00
78373;BME280;67656;52.074;4.758;2023-08-12T18:31:46;101593.00;;;21.02;100.00
78373;BME280;67656;52.074;4.758;2023-08-12T18:36:47;101586.94;;;20.84;100.00
78373;BME280;67656;52.074;4.758;2023-08-12T18:41:47;101589.03;;;20.79;100.00
78373;BME280;67656;52.074;4.758;2023-08-12T18:46:47;101595.56;;;20.90;100.00
78373;BME280;67656;52.074;4.758;2023-08-12T18:51:48;101595.38;;;20.93;100.00
78373;BME280;67656;52.074;4.758;2023-08-12T18:56:48;101609.19;;;21.01;100.00
78373;BME280;67656;52.074;4.758;2023-08-12T19:01:49;101596.44;;;20.90;100.00
78373;BME280;67656;52.074;4.758;2023-08-12T19:06:49;101601.88;;;20.89;100.00
78373;BME280;67656;52.074;4.758;2023-08-12T19:11:49;101613.75;;;20.84;100.00
78373;BME280;67656;52.074;4.758;2023-08-12T19:16:50;101618.59;;;20.62;100.00
78373;BME280;67656;52.074;4.758;2023-08-12T19:21:56;101620.22;;;20.34;100.00
78373;BME280;67656;52.074;4.758;2023-08-12T19:32:48;101628.34;;;20.16;100.00
78373;BME280;67656;52.074;4.758;2023-08-12T19:38:01;101636.38;;;20.16;100.00
78373;BME280;67656;52.074;4.758;2023-08-12T19:43:05;101640.97;;;20.14;100.00
78373;BME280;67656;52.074;4.758;2023-08-12T19:48:07;101643.53;;;20.00;100.00
78373;BME280;67656;52.074;4.758;2023-08-12T19:53:09;101644.06;;;19.90;100.00
78373;BME280;67656;52.074;4.758;2023-08-12T19:58:12;101643.88;;;19.93;100.00
78373;BME280;67656;52.074;4.758;2023-08-12T20:03:13;101654.34;;;19.80;100.00
78373;BME280;67656;52.074;4.758;2023-08-12T20:08:14;101643.50;;;19.84;100.00
78373;BME280;67656;52.074;4.758;2023-08-12T20:13:15;101644.69;;;19.78;100.00
78373;BME280;67656;52.074;4.758;2023-08-12T20:18:16;101651.78;;;19.79;100.00
78373;BME280;67656;52.074;4.758;2023-08-12T20:23:17;101649.09;;;19.97;100.00
78373;BME280;67656;52.074;4.758;2023-08-12T20:28:17;101646.94;;;19.70;100.00
78373;BME280;67656;52.074;4.758;2023-08-12T20:33:19;101651.50;;;19.68;100.00
78373;BME280;67656;52.074;4.758;2023-08-12T20:38:26;101641.56;;;19.70;100.00
78373;BME280;67656;52.074;4.758;2023-08-12T20:43:27;101628.66;;;19.60;100.00
78373;BME280;67656;52.074;4.758;2023-08-12T20:48:27;101634.19;;;19.57;100.00
78373;BME280;67656;52.074;4.758;2023-08-12T20:53:28;101635.31;;;19.53;100.00
78373;BME280;67656;52.074;4.758;2023-08-12T20:58:28;101637.69;;;19.42;100.00
78373;BME280;67656;52.074;4.758;2023-08-12T21:03:31;101635.56;;;19.48;100.00
78373;BME280;67656;52.074;4.758;2023-08-12T21:08:34;101636.66;;;19.44;100.00
78373;BME280;67656;52.074;4.758;2023-08-12T21:13:35;101636.09;;;19.38;100.00
78373;BME280;67656;52.074;4.758;2023-08-12T21:18:35;101631.13;;;19.47;100.00
78373;BME280;67656;52.074;4.758;2023-08-12T21:23:37;101631.00;;;19.33;100.00
78373;BME280;67656;52.074;4.758;2023-08-12T21:28:38;101634.72;;;19.30;100.00
78373;BME280;67656;52.074;4.758;2023-08-12T21:33:39;101638.19;;;19.32;100.00
78373;BME280;67656;52.074;4.758;2023-08-12T21:38:40;101645.41;;;19.30;100.00
78373;BME280;67656;52.074;4.758;2023-08-12T21:43:41;101642.09;;;19.25;100.00
78373;BME280;67656;52.074;4.758;2023-08-12T21:48:41;101639.56;;;19.22;100.00
78373;BME280;67656;52.074;4.758;2023-08-12T21:53:45;101645.34;;;19.14;100.00
78373;BME280;67656;52.074;4.758;2023-08-12T21:58:46;101643.63;;;19.13;100.00
78373;BME280;67656;52.074;4.758;2023-08-12T22:03:46;101642.69;;;19.14;100.00
78373;BME280;67656;52.074;4.758;2023-08-12T22:08:47;101646.84;;;19.02;100.00
78373;BME280;67656;52.074;4.758;2023-08-12T22:13:48;101647.94;;;19.16;100.00
78373;BME280;67656;52.074;4.758;2023-08-12T22:18:48;101651.16;;;19.05;100.00
78373;BME280;67656;52.074;4.758;2023-08-12T22:23:49;101650.91;;;19.10;100.00
78373;BME280;67656;52.074;4.758;2023-08-12T22:28:50;101647.41;;;18.90;100.00
78373;BME280;67656;52.074;4.758;2023-08-12T22:33:50;101645.53;;;18.92;100.00
78373;BME280;67656;52.074;4.758;2023-08-12T22:38:50;101654.22;;;18.97;100.00
78373;BME280;67656;52.074;4.758;2023-08-12T22:43:51;101652.13;;;18.85;100.00
78373;BME280;67656;52.074;4.758;2023-08-12T22:48:51;101652.78;;;18.90;100.00
78373;BME280;67656;52.074;4.758;2023-08-12T22:53:51;101646.63;;;18.88;100.00
78373;BME280;67656;52.074;4.758;2023-08-12T22:58:52;101652.81;;;18.71;100.00
78373;BME280;67656;52.074;4.758;2023-08-12T23:03:53;101657.56;;;18.83;100.00
78373;BME280;67656;52.074;4.758;2023-08-12T23:08:53;101663.38;;;18.92;100.00
78373;BME280;67656;52.074;4.758;2023-08-12T23:13:55;101661.69;;;18.71;100.00
78373;BME280;67656;52.074;4.758;2023-08-12T23:18:57;101670.38;;;18.77;100.00
78373;BME280;67656;52.074;4.758;2023-08-12T23:23:58;101656.44;;;18.70;100.00
78373;BME280;67656;52.074;4.758;2023-08-12T23:28:59;101659.19;;;18.68;100.00
78373;BME280;67656;52.074;4.758;2023-08-12T23:34:04;101679.00;;;18.64;100.00
78373;BME280;67656;52.074;4.758;2023-08-12T23:39:07;101665.41;;;18.69;100.00
78373;BME280;67656;52.074;4.758;2023-08-12T23:44:12;101665.44;;;18.50;100.00
78373;BME280;67656;52.074;4.758;2023-08-12T23:49:18;101658.63;;;18.62;100.00
78373;BME280;67656;52.074;4.758;2023-08-12T23:54:19;101666.41;;;18.66;100.00
78373;BME280;67656;52.074;4.758;2023-08-12T23:59:20;101663.09;;;18.61;100.00
